sensor_id;sensor_type;location;lat;lon;timestamp;P1;durP1;ratioP1;P2;durP2;ratioP2
13349;SDS011;6744;53.190;6.576;2022-09-12T00:02:20;7.00;;;6.50;;
13349;SDS011;6744;53.190;6.576;2022-09-12T00:04:45;7.77;;;7.17;;
13349;SDS011;6744;53.190;6.576;2022-09-12T00:07:11;6.90;;;6.40;;
13349;SDS011;6744;53.190;6.576;2022-09-12T00:09:36;6.80;;;6.30;;
13349;SDS011;6744;53.190;6.576;2022-09-12T00:12:02;7.47;;;6.77;;
13349;SDS011;6744;53.190;6.576;2022-09-12T00:14:28;7.20;;;6.70;;
13349;SDS011;6744;53.190;6.576;2022-09-12T00:16:56;7.27;;;6.67;;
13349;SDS011;6744;53.190;6.576;2022-09-12T00:19:22;7.47;;;6.77;;
13349;SDS011;6744;53.190;6.576;2022-09-12T00:21:48;6.83;;;6.33;;
13349;SDS011;6744;53.190;6.576;2022-09-12T00:24:13;7.17;;;6.60;;
13349;SDS011;6744;53.190;6.576;2022-09-12T00:26:39;7.67;;;7.07;;
13349;SDS011;6744;53.190;6.576;2022-09-12T00:29:04;6.77;;;6.27;;
13349;SDS011;6744;53.190;6.576;2022-09-12T00:31:29;7.10;;;6.60;;
13349;SDS011;6744;53.190;6.576;2022-09-12T00:33:56;7.60;;;7.00;;
13349;SDS011;6744;53.190;6.576;2022-09-12T00:36:23;7.33;;;6.73;;
13349;SDS011;6744;53.190;6.576;2022-09-12T00:38:49;7.40;;;6.90;;
13349;SDS011;6744;53.190;6.576;2022-09-12T00:41:17;6.90;;;6.40;;
13349;SDS011;6744;53.190;6.576;2022-09-12T00:43:45;7.40;;;6.83;;
13349;SDS011;6744;53.190;6.576;2022-09-12T00:46:25;7.13;;;6.53;;
13349;SDS011;6744;53.190;6.576;2022-09-12T00:48:55;7.40;;;6.80;;
13349;SDS011;6744;53.190;6.576;2022-09-12T00:51:24;6.93;;;6.40;;
13349;SDS011;6744;53.190;6.576;2022-09-12T00:53:50;7.70;;;7.10;;
13349;SDS011;6744;53.190;6.576;2022-09-12T00:56:17;7.50;;;6.90;;
13349;SDS011;6744;53.190;6.576;2022-09-12T00:58:52;7.40;;;6.77;;
13349;SDS011;6744;53.190;6.576;2022-09-12T01:01:21;7.17;;;6.57;;
13349;SDS011;6744;53.190;6.576;2022-09-12T01:03:47;7.20;;;6.70;;
13349;SDS011;6744;53.190;6.576;2022-09-12T01:06:14;7.37;;;6.77;;
13349;SDS011;6744;53.190;6.576;2022-09-12T01:08:42;8.40;;;7.70;;
13349;SDS011;6744;53.190;6.576;2022-09-12T01:11:08;9.23;;;8.53;;
13349;SDS011;6744;53.190;6.576;2022-09-12T01:13:34;8.30;;;7.70;;
13349;SDS011;6744;53.190;6.576;2022-09-12T01:16:01;8.53;;;7.83;;
13349;SDS011;6744;53.190;6.576;2022-09-12T01:18:34;9.30;;;8.60;;
13349;SDS011;6744;53.190;6.576;2022-09-12T01:31:12;9.10;;;8.37;;
13349;SDS011;6744;53.190;6.576;2022-09-12T01:33:58;8.67;;;7.97;;
13349;SDS011;6744;53.190;6.576;2022-09-12T01:39:31;8.63;;;7.93;;
13349;SDS011;6744;53.190;6.576;2022-09-12T01:48:06;8.50;;;7.90;;
13349;SDS011;6744;53.190;6.576;2022-09-12T01:55:23;8.90;;;8.10;;
13349;SDS011;6744;53.190;6.576;2022-09-12T01:57:56;9.97;;;9.27;;
13349;SDS011;6744;53.190;6.576;2022-09-12T02:00:24;9.53;;;8.83;;
13349;SDS011;6744;53.190;6.576;2022-09-12T02:03:10;8.37;;;7.77;;
13349;SDS011;6744;53.190;6.576;2022-09-12T02:05:40;8.93;;;8.30;;
13349;SDS011;6744;53.190;6.576;2022-09-12T02:08:09;10.23;;;9.43;;
13349;SDS011;6744;53.190;6.576;2022-09-12T02:10:55;9.90;;;9.10;;
13349;SDS011;6744;53.190;6.576;2022-09-12T02:16:02;9.33;;;8.63;;
13349;SDS011;6744;53.190;6.576;2022-09-12T02:18:31;10.97;;;10.17;;
13349;SDS011;6744;53.190;6.576;2022-09-12T02:20:58;11.47;;;10.57;;
13349;SDS011;6744;53.190;6.576;2022-09-12T02:23:26;10.17;;;9.37;;
13349;SDS011;6744;53.190;6.576;2022-09-12T02:25:56;10.23;;;9.43;;
13349;SDS011;6744;53.190;6.576;2022-09-12T02:28:35;10.77;;;9.87;;
13349;SDS011;6744;53.190;6.576;2022-09-12T02:37:11;10.60;;;9.80;;
13349;SDS011;6744;53.190;6.576;2022-09-12T02:39:32;10.40;;;9.60;;
13349;SDS011;6744;53.190;6.576;2022-09-12T02:41:58;10.83;;;10.03;;
13349;SDS011;6744;53.190;6.576;2022-09-12T02:44:25;9.97;;;9.17;;
13349;SDS011;6744;53.190;6.576;2022-09-12T02:46:59;10.40;;;9.60;;
13349;SDS011;6744;53.190;6.576;2022-09-12T02:49:30;10.90;;;10.00;;
13349;SDS011;6744;53.190;6.576;2022-09-12T02:51:55;11.50;;;10.57;;
13349;SDS011;6744;53.190;6.576;2022-09-12T02:54:21;13.00;;;11.90;;
13349;SDS011;6744;53.190;6.576;2022-09-12T02:56:47;11.80;;;10.90;;
13349;SDS011;6744;53.190;6.576;2022-09-12T02:59:13;11.10;;;10.30;;
13349;SDS011;6744;53.190;6.576;2022-09-12T03:07:13;11.50;;;10.60;;
13349;SDS011;6744;53.190;6.576;2022-09-12T03:09:44;11.67;;;10.77;;
13349;SDS011;6744;53.190;6.576;2022-09-12T03:22:52;13.90;;;12.90;;
13349;SDS011;6744;53.190;6.576;2022-09-12T03:25:21;14.37;;;13.17;;
13349;SDS011;6744;53.190;6.576;2022-09-12T03:27:52;13.07;;;12.07;;
13349;SDS011;6744;53.190;6.576;2022-09-12T03:30:21;13.67;;;12.33;;
13349;SDS011;6744;53.190;6.576;2022-09-12T03:32:50;14.03;;;12.93;;
13349;SDS011;6744;53.190;6.576;2022-09-12T03:35:17;12.77;;;11.73;;
13349;SDS011;6744;53.190;6.576;2022-09-12T03:37:45;12.43;;;11.50;;
13349;SDS011;6744;53.190;6.576;2022-09-12T03:40:11;13.27;;;12.17;;
13349;SDS011;6744;53.190;6.576;2022-09-12T03:42:37;13.27;;;12.23;;
13349;SDS011;6744;53.190;6.576;2022-09-12T03:45:03;12.57;;;11.47;;
13349;SDS011;6744;53.190;6.576;2022-09-12T03:47:29;13.30;;;12.10;;
13349;SDS011;6744;53.190;6.576;2022-09-12T03:49:55;13.47;;;12.37;;
13349;SDS011;6744;53.190;6.576;2022-09-12T03:52:20;14.00;;;12.77;;
13349;SDS011;6744;53.190;6.576;2022-09-12T03:54:46;14.47;;;13.27;;
13349;SDS011;6744;53.190;6.576;2022-09-12T03:57:12;14.67;;;13.37;;
13349;SDS011;6744;53.190;6.576;2022-09-12T03:59:37;14.37;;;13.17;;
13349;SDS011;6744;53.190;6.576;2022-09-12T04:02:02;14.87;;;13.57;;
13349;SDS011;6744;53.190;6.576;2022-09-12T04:04:28;15.00;;;13.80;;
13349;SDS011;6744;53.190;6.576;2022-09-12T04:06:54;16.10;;;14.80;;
13349;SDS011;6744;53.190;6.576;2022-09-12T04:09:19;15.27;;;13.87;;
13349;SDS011;6744;53.190;6.576;2022-09-12T04:11:45;15.43;;;14.13;;
13349;SDS011;6744;53.190;6.576;2022-09-12T04:14:10;15.97;;;14.53;;
13349;SDS011;6744;53.190;6.576;2022-09-12T04:16:36;15.67;;;14.27;;
13349;SDS011;6744;53.190;6.576;2022-09-12T04:19:01;17.80;;;16.20;;
13349;SDS011;6744;53.190;6.576;2022-09-12T04:21:27;18.00;;;16.43;;
13349;SDS011;6744;53.190;6.576;2022-09-12T04:23:52;15.90;;;14.60;;
13349;SDS011;6744;53.190;6.576;2022-09-12T04:26:18;15.90;;;14.50;;
13349;SDS011;6744;53.190;6.576;2022-09-12T04:28:44;16.20;;;14.80;;
13349;SDS011;6744;53.190;6.576;2022-09-12T04:31:11;16.20;;;14.80;;
13349;SDS011;6744;53.190;6.576;2022-09-12T04:33:39;17.03;;;15.43;;
13349;SDS011;6744;53.190;6.576;2022-09-12T04:36:05;16.40;;;15.10;;
13349;SDS011;6744;53.190;6.576;2022-09-12T04:38:40;16.40;;;14.97;;
13349;SDS011;6744;53.190;6.576;2022-09-12T04:41:13;16.27;;;14.87;;
13349;SDS011;6744;53.190;6.576;2022-09-12T04:43:39;16.97;;;15.47;;
13349;SDS011;6744;53.190;6.576;2022-09-12T04:46:06;18.03;;;16.30;;
13349;SDS011;6744;53.190;6.576;2022-09-12T04:48:32;16.87;;;15.37;;
13349;SDS011;6744;53.190;6.576;2022-09-12T04:51:11;17.13;;;15.63;;
13349;SDS011;6744;53.190;6.576;2022-09-12T04:53:42;17.50;;;16.00;;
13349;SDS011;6744;53.190;6.576;2022-09-12T04:56:12;17.17;;;15.57;;
13349;SDS011;6744;53.190;6.576;2022-09-12T04:58:37;17.73;;;16.13;;
13349;SDS011;6744;53.190;6.576;2022-09-12T05:01:13;18.77;;;17.17;;
13349;SDS011;6744;53.190;6.576;2022-09-12T05:03:41;18.47;;;16.77;;
13349;SDS011;6744;53.190;6.576;2022-09-12T05:06:13;19.20;;;17.50;;
13349;SDS011;6744;53.190;6.576;2022-09-12T05:08:41;20.60;;;18.77;;
13349;SDS011;6744;53.190;6.576;2022-09-12T05:11:08;18.97;;;17.23;;
13349;SDS011;6744;53.190;6.576;2022-09-12T05:13:35;18.53;;;16.83;;
13349;SDS011;6744;53.190;6.576;2022-09-12T05:16:01;18.77;;;17.10;;
13349;SDS011;6744;53.190;6.576;2022-09-12T05:18:29;19.80;;;17.97;;
13349;SDS011;6744;53.190;6.576;2022-09-12T05:20:59;20.13;;;18.37;;
13349;SDS011;6744;53.190;6.576;2022-09-12T05:23:25;20.93;;;18.97;;
13349;SDS011;6744;53.190;6.576;2022-09-12T05:25:51;20.87;;;18.97;;
13349;SDS011;6744;53.190;6.576;2022-09-12T05:28:18;19.80;;;18.00;;
13349;SDS011;6744;53.190;6.576;2022-09-12T05:30:44;22.00;;;19.90;;
13349;SDS011;6744;53.190;6.576;2022-09-12T05:33:10;23.47;;;21.17;;
13349;SDS011;6744;53.190;6.576;2022-09-12T05:35:35;25.37;;;22.87;;
13349;SDS011;6744;53.190;6.576;2022-09-12T05:38:04;22.20;;;20.10;;
13349;SDS011;6744;53.190;6.576;2022-09-12T05:40:30;22.37;;;20.30;;
13349;SDS011;6744;53.190;6.576;2022-09-12T05:42:56;22.53;;;20.53;;
13349;SDS011;6744;53.190;6.576;2022-09-12T05:45:21;23.23;;;21.00;;
13349;SDS011;6744;53.190;6.576;2022-09-12T05:47:47;22.53;;;20.43;;
13349;SDS011;6744;53.190;6.576;2022-09-12T05:50:12;22.43;;;20.37;;
13349;SDS011;6744;53.190;6.576;2022-09-12T05:52:38;22.13;;;20.13;;
13349;SDS011;6744;53.190;6.576;2022-09-12T05:55:03;22.83;;;20.63;;
13349;SDS011;6744;53.190;6.576;2022-09-12T05:57:29;24.67;;;22.40;;
13349;SDS011;6744;53.190;6.576;2022-09-12T05:59:55;24.13;;;21.83;;
13349;SDS011;6744;53.190;6.576;2022-09-12T06:02:20;24.67;;;22.27;;
13349;SDS011;6744;53.190;6.576;2022-09-12T06:04:45;22.60;;;20.40;;
13349;SDS011;6744;53.190;6.576;2022-09-12T06:07:11;24.37;;;22.07;;
13349;SDS011;6744;53.190;6.576;2022-09-12T06:09:37;25.57;;;23.13;;
13349;SDS011;6744;53.190;6.576;2022-09-12T06:12:02;25.83;;;23.33;;
13349;SDS011;6744;53.190;6.576;2022-09-12T06:14:28;27.57;;;24.87;;
13349;SDS011;6744;53.190;6.576;2022-09-12T06:16:53;25.70;;;23.30;;
13349;SDS011;6744;53.190;6.576;2022-09-12T06:19:19;24.33;;;21.97;;
13349;SDS011;6744;53.190;6.576;2022-09-12T06:21:46;27.73;;;25.03;;
13349;SDS011;6744;53.190;6.576;2022-09-12T06:24:16;23.97;;;21.60;;
13349;SDS011;6744;53.190;6.576;2022-09-12T06:26:42;22.77;;;20.60;;
13349;SDS011;6744;53.190;6.576;2022-09-12T06:29:08;24.00;;;21.73;;
13349;SDS011;6744;53.190;6.576;2022-09-12T06:31:35;23.27;;;21.07;;
13349;SDS011;6744;53.190;6.576;2022-09-12T06:34:03;25.80;;;23.30;;
13349;SDS011;6744;53.190;6.576;2022-09-12T06:36:30;25.17;;;22.70;;
13349;SDS011;6744;53.190;6.576;2022-09-12T06:39:02;28.13;;;25.23;;
13349;SDS011;6744;53.190;6.576;2022-09-12T06:41:30;28.10;;;25.17;;
13349;SDS011;6744;53.190;6.576;2022-09-12T06:43:56;25.40;;;22.83;;
13349;SDS011;6744;53.190;6.576;2022-09-12T06:46:22;33.07;;;29.47;;
13349;SDS011;6744;53.190;6.576;2022-09-12T06:48:48;33.13;;;29.63;;
13349;SDS011;6744;53.190;6.576;2022-09-12T06:51:15;27.87;;;25.07;;
13349;SDS011;6744;53.190;6.576;2022-09-12T06:53:42;26.53;;;23.73;;
13349;SDS011;6744;53.190;6.576;2022-09-12T06:58:38;31.47;;;28.13;;
13349;SDS011;6744;53.190;6.576;2022-09-12T07:01:11;30.20;;;27.10;;
13349;SDS011;6744;53.190;6.576;2022-09-12T07:03:38;29.40;;;26.40;;
13349;SDS011;6744;53.190;6.576;2022-09-12T07:06:04;29.03;;;26.03;;
13349;SDS011;6744;53.190;6.576;2022-09-12T07:08:32;36.43;;;32.47;;
13349;SDS011;6744;53.190;6.576;2022-09-12T07:10:59;30.10;;;27.00;;
13349;SDS011;6744;53.190;6.576;2022-09-12T07:13:28;30.93;;;27.67;;
13349;SDS011;6744;53.190;6.576;2022-09-12T07:15:53;29.30;;;26.30;;
13349;SDS011;6744;53.190;6.576;2022-09-12T07:18:19;32.87;;;29.27;;
13349;SDS011;6744;53.190;6.576;2022-09-12T07:20:45;29.93;;;26.63;;
13349;SDS011;6744;53.190;6.576;2022-09-12T07:23:10;29.83;;;26.67;;
13349;SDS011;6744;53.190;6.576;2022-09-12T07:25:35;31.77;;;28.37;;
13349;SDS011;6744;53.190;6.576;2022-09-12T07:28:01;36.57;;;32.63;;
13349;SDS011;6744;53.190;6.576;2022-09-12T07:30:27;37.37;;;33.43;;
13349;SDS011;6744;53.190;6.576;2022-09-12T07:32:52;34.80;;;30.87;;
13349;SDS011;6744;53.190;6.576;2022-09-12T07:35:19;38.70;;;34.13;;
13349;SDS011;6744;53.190;6.576;2022-09-12T07:37:44;37.57;;;33.53;;
13349;SDS011;6744;53.190;6.576;2022-09-12T07:40:10;38.37;;;34.27;;
13349;SDS011;6744;53.190;6.576;2022-09-12T07:42:35;37.87;;;33.90;;
13349;SDS011;6744;53.190;6.576;2022-09-12T07:45:01;37.80;;;33.07;;
13349;SDS011;6744;53.190;6.576;2022-09-12T07:47:26;37.77;;;33.53;;
13349;SDS011;6744;53.190;6.576;2022-09-12T07:49:51;35.93;;;31.73;;
13349;SDS011;6744;53.190;6.576;2022-09-12T07:52:17;37.43;;;32.00;;
13349;SDS011;6744;53.190;6.576;2022-09-12T07:54:42;37.87;;;33.80;;
13349;SDS011;6744;53.190;6.576;2022-09-12T07:57:08;44.47;;;36.33;;
13349;SDS011;6744;53.190;6.576;2022-09-12T07:59:33;38.13;;;33.27;;
13349;SDS011;6744;53.190;6.576;2022-09-12T08:01:59;37.23;;;32.30;;
13349;SDS011;6744;53.190;6.576;2022-09-12T08:04:24;34.13;;;30.33;;
13349;SDS011;6744;53.190;6.576;2022-09-12T08:06:50;35.77;;;31.87;;
13349;SDS011;6744;53.190;6.576;2022-09-12T08:09:15;41.53;;;34.53;;
13349;SDS011;6744;53.190;6.576;2022-09-12T08:11:41;33.67;;;29.80;;
13349;SDS011;6744;53.190;6.576;2022-09-12T08:14:07;38.73;;;34.53;;
13349;SDS011;6744;53.190;6.576;2022-09-12T08:16:33;39.30;;;35.07;;
13349;SDS011;6744;53.190;6.576;2022-09-12T08:19:00;41.13;;;36.10;;
13349;SDS011;6744;53.190;6.576;2022-09-12T08:21:27;41.50;;;35.87;;
13349;SDS011;6744;53.190;6.576;2022-09-12T08:23:55;36.10;;;32.20;;
13349;SDS011;6744;53.190;6.576;2022-09-12T08:26:25;39.37;;;32.50;;
13349;SDS011;6744;53.190;6.576;2022-09-12T08:28:51;35.30;;;31.57;;
13349;SDS011;6744;53.190;6.576;2022-09-12T08:31:18;38.33;;;33.30;;
13349;SDS011;6744;53.190;6.576;2022-09-12T08:33:44;32.77;;;29.27;;
13349;SDS011;6744;53.190;6.576;2022-09-12T08:36:20;33.97;;;29.90;;
13349;SDS011;6744;53.190;6.576;2022-09-12T08:38:52;36.40;;;31.23;;
13349;SDS011;6744;53.190;6.576;2022-09-12T08:41:34;33.67;;;30.00;;
13349;SDS011;6744;53.190;6.576;2022-09-12T08:49:14;32.73;;;29.00;;
13349;SDS011;6744;53.190;6.576;2022-09-12T08:51:49;32.87;;;29.37;;
13349;SDS011;6744;53.190;6.576;2022-09-12T08:54:19;32.87;;;29.17;;
13349;SDS011;6744;53.190;6.576;2022-09-12T08:56:45;29.73;;;26.57;;
13349;SDS011;6744;53.190;6.576;2022-09-12T08:59:12;27.97;;;25.03;;
13349;SDS011;6744;53.190;6.576;2022-09-12T09:01:41;29.00;;;25.73;;
13349;SDS011;6744;53.190;6.576;2022-09-12T09:18:31;32.80;;;29.20;;
13349;SDS011;6744;53.190;6.576;2022-09-12T09:20:37;32.00;;;27.93;;
13349;SDS011;6744;53.190;6.576;2022-09-12T09:26:04;31.00;;;26.63;;
13349;SDS011;6744;53.190;6.576;2022-09-12T09:28:33;27.93;;;23.97;;
13349;SDS011;6744;53.190;6.576;2022-09-12T09:31:01;28.57;;;24.63;;
13349;SDS011;6744;53.190;6.576;2022-09-12T09:33:28;30.30;;;25.07;;
13349;SDS011;6744;53.190;6.576;2022-09-12T09:38:49;27.50;;;23.83;;
13349;SDS011;6744;53.190;6.576;2022-09-12T09:44:14;26.23;;;23.40;;
13349;SDS011;6744;53.190;6.576;2022-09-12T09:46:39;27.97;;;23.87;;
13349;SDS011;6744;53.190;6.576;2022-09-12T09:49:04;24.90;;;22.07;;
13349;SDS011;6744;53.190;6.576;2022-09-12T09:51:38;24.83;;;22.10;;
13349;SDS011;6744;53.190;6.576;2022-09-12T09:56:56;29.60;;;24.50;;
13349;SDS011;6744;53.190;6.576;2022-09-12T10:01:52;25.70;;;23.00;;
13349;SDS011;6744;53.190;6.576;2022-09-12T10:04:22;26.27;;;22.83;;
13349;SDS011;6744;53.190;6.576;2022-09-12T10:06:50;25.57;;;22.57;;
13349;SDS011;6744;53.190;6.576;2022-09-12T10:09:24;28.40;;;25.30;;
13349;SDS011;6744;53.190;6.576;2022-09-12T10:11:54;28.03;;;23.43;;
13349;SDS011;6744;53.190;6.576;2022-09-12T10:16:54;27.60;;;23.03;;
13349;SDS011;6744;53.190;6.576;2022-09-12T10:19:22;29.83;;;26.23;;
13349;SDS011;6744;53.190;6.576;2022-09-12T10:21:58;29.87;;;25.27;;
13349;SDS011;6744;53.190;6.576;2022-09-12T10:24:25;27.57;;;24.33;;
13349;SDS011;6744;53.190;6.576;2022-09-12T10:27:35;24.13;;;21.13;;
13349;SDS011;6744;53.190;6.576;2022-09-12T10:29:49;24.10;;;20.83;;
13349;SDS011;6744;53.190;6.576;2022-09-12T10:32:23;24.17;;;20.33;;
13349;SDS011;6744;53.190;6.576;2022-09-12T10:35:01;21.07;;;17.93;;
13349;SDS011;6744;53.190;6.576;2022-09-12T10:37:34;21.60;;;19.27;;
13349;SDS011;6744;53.190;6.576;2022-09-12T10:40:01;26.47;;;23.13;;
13349;SDS011;6744;53.190;6.576;2022-09-12T10:47:57;21.27;;;17.63;;
13349;SDS011;6744;53.190;6.576;2022-09-12T10:52:52;25.77;;;20.40;;
13349;SDS011;6744;53.190;6.576;2022-09-12T10:55:20;24.10;;;20.13;;
13349;SDS011;6744;53.190;6.576;2022-09-12T10:58:08;19.23;;;16.73;;
13349;SDS011;6744;53.190;6.576;2022-09-12T11:00:38;17.67;;;15.37;;
13349;SDS011;6744;53.190;6.576;2022-09-12T11:03:13;26.30;;;20.13;;
13349;SDS011;6744;53.190;6.576;2022-09-12T11:05:59;22.03;;;18.50;;
13349;SDS011;6744;53.190;6.576;2022-09-12T11:11:16;25.30;;;20.27;;
13349;SDS011;6744;53.190;6.576;2022-09-12T11:22:14;20.83;;;17.03;;
13349;SDS011;6744;53.190;6.576;2022-09-12T11:34:06;17.80;;;15.27;;
13349;SDS011;6744;53.190;6.576;2022-09-12T11:39:14;14.00;;;12.30;;
13349;SDS011;6744;53.190;6.576;2022-09-12T11:41:49;14.13;;;11.93;;
13349;SDS011;6744;53.190;6.576;2022-09-12T11:44:18;15.63;;;13.93;;
13349;SDS011;6744;53.190;6.576;2022-09-12T11:46:47;13.03;;;11.07;;
13349;SDS011;6744;53.190;6.576;2022-09-12T11:54:20;11.77;;;9.90;;
13349;SDS011;6744;53.190;6.576;2022-09-12T11:56:52;10.53;;;8.93;;
13349;SDS011;6744;53.190;6.576;2022-09-12T11:59:31;7.57;;;6.87;;
13349;SDS011;6744;53.190;6.576;2022-09-12T12:02:01;8.27;;;6.40;;
13349;SDS011;6744;53.190;6.576;2022-09-12T12:04:33;9.70;;;8.43;;
13349;SDS011;6744;53.190;6.576;2022-09-12T12:07:06;9.00;;;8.00;;
13349;SDS011;6744;53.190;6.576;2022-09-12T12:09:45;8.13;;;7.20;;
13349;SDS011;6744;53.190;6.576;2022-09-12T12:12:20;10.20;;;9.17;;
13349;SDS011;6744;53.190;6.576;2022-09-12T12:14:48;9.07;;;8.17;;
13349;SDS011;6744;53.190;6.576;2022-09-12T12:17:16;8.87;;;7.60;;
13349;SDS011;6744;53.190;6.576;2022-09-12T12:19:44;9.13;;;7.60;;
13349;SDS011;6744;53.190;6.576;2022-09-12T12:22:17;7.70;;;6.47;;
13349;SDS011;6744;53.190;6.576;2022-09-12T12:28:07;10.80;;;8.80;;
13349;SDS011;6744;53.190;6.576;2022-09-12T12:33:01;7.03;;;5.83;;
13349;SDS011;6744;53.190;6.576;2022-09-12T12:40:50;9.40;;;8.00;;
13349;SDS011;6744;53.190;6.576;2022-09-12T12:43:31;7.90;;;6.67;;
13349;SDS011;6744;53.190;6.576;2022-09-12T12:46:01;9.40;;;7.90;;
13349;SDS011;6744;53.190;6.576;2022-09-12T12:48:29;8.33;;;7.20;;
13349;SDS011;6744;53.190;6.576;2022-09-12T12:53:47;6.17;;;5.57;;
13349;SDS011;6744;53.190;6.576;2022-09-12T12:56:32;6.27;;;5.53;;
13349;SDS011;6744;53.190;6.576;2022-09-12T12:59:05;4.77;;;4.37;;
13349;SDS011;6744;53.190;6.576;2022-09-12T13:01:43;4.60;;;4.13;;
13349;SDS011;6744;53.190;6.576;2022-09-12T13:04:11;4.33;;;3.93;;
13349;SDS011;6744;53.190;6.576;2022-09-12T13:06:40;5.30;;;4.70;;
13349;SDS011;6744;53.190;6.576;2022-09-12T13:12:50;4.80;;;4.40;;
13349;SDS011;6744;53.190;6.576;2022-09-12T13:14:52;5.70;;;5.20;;
13349;SDS011;6744;53.190;6.576;2022-09-12T13:19:44;6.40;;;5.67;;
13349;SDS011;6744;53.190;6.576;2022-09-12T13:22:10;5.47;;;4.93;;
13349;SDS011;6744;53.190;6.576;2022-09-12T13:24:42;5.57;;;4.90;;
13349;SDS011;6744;53.190;6.576;2022-09-12T13:27:21;6.57;;;5.83;;
13349;SDS011;6744;53.190;6.576;2022-09-12T13:29:48;4.93;;;4.53;;
13349;SDS011;6744;53.190;6.576;2022-09-12T13:32:14;6.50;;;5.13;;
13349;SDS011;6744;53.190;6.576;2022-09-12T13:45:39;5.33;;;4.83;;
13349;SDS011;6744;53.190;6.576;2022-09-12T13:48:05;6.33;;;5.40;;
13349;SDS011;6744;53.190;6.576;2022-09-12T13:50:38;5.70;;;5.10;;
13349;SDS011;6744;53.190;6.576;2022-09-12T13:53:06;5.57;;;5.07;;
13349;SDS011;6744;53.190;6.576;2022-09-12T13:55:38;5.10;;;4.60;;
13349;SDS011;6744;53.190;6.576;2022-09-12T13:58:12;5.50;;;5.00;;
13349;SDS011;6744;53.190;6.576;2022-09-12T14:00:41;5.90;;;5.27;;
13349;SDS011;6744;53.190;6.576;2022-09-12T14:03:25;5.03;;;4.53;;
13349;SDS011;6744;53.190;6.576;2022-09-12T14:06:11;6.80;;;6.10;;
13349;SDS011;6744;53.190;6.576;2022-09-12T14:08:40;5.83;;;5.20;;
13349;SDS011;6744;53.190;6.576;2022-09-12T14:11:09;5.87;;;4.90;;
13349;SDS011;6744;53.190;6.576;2022-09-12T14:13:35;4.43;;;4.03;;
13349;SDS011;6744;53.190;6.576;2022-09-12T14:16:02;5.17;;;4.47;;
13349;SDS011;6744;53.190;6.576;2022-09-12T14:18:29;6.33;;;4.97;;
13349;SDS011;6744;53.190;6.576;2022-09-12T14:21:04;4.87;;;4.37;;
13349;SDS011;6744;53.190;6.576;2022-09-12T14:23:35;5.87;;;4.37;;
13349;SDS011;6744;53.190;6.576;2022-09-12T14:26:05;6.03;;;4.70;;
13349;SDS011;6744;53.190;6.576;2022-09-12T14:28:34;4.53;;;4.10;;
13349;SDS011;6744;53.190;6.576;2022-09-12T14:36:25;5.23;;;4.60;;
13349;SDS011;6744;53.190;6.576;2022-09-12T14:38:55;5.87;;;5.03;;
13349;SDS011;6744;53.190;6.576;2022-09-12T14:41:43;4.67;;;4.27;;
13349;SDS011;6744;53.190;6.576;2022-09-12T14:47:13;5.73;;;4.83;;
13349;SDS011;6744;53.190;6.576;2022-09-12T14:49:42;5.03;;;4.30;;
13349;SDS011;6744;53.190;6.576;2022-09-12T14:52:20;4.90;;;4.50;;
13349;SDS011;6744;53.190;6.576;2022-09-12T14:54:57;5.47;;;4.87;;
13349;SDS011;6744;53.190;6.576;2022-09-12T15:02:43;7.67;;;6.90;;
13349;SDS011;6744;53.190;6.576;2022-09-12T15:07:39;9.23;;;8.37;;
13349;SDS011;6744;53.190;6.576;2022-09-12T15:12:49;9.23;;;8.33;;
13349;SDS011;6744;53.190;6.576;2022-09-12T15:15:22;8.97;;;7.47;;
13349;SDS011;6744;53.190;6.576;2022-09-12T15:17:47;8.50;;;7.60;;
13349;SDS011;6744;53.190;6.576;2022-09-12T15:20:13;7.97;;;7.17;;
13349;SDS011;6744;53.190;6.576;2022-09-12T15:22:38;7.47;;;6.83;;
13349;SDS011;6744;53.190;6.576;2022-09-12T15:25:04;7.63;;;6.93;;
13349;SDS011;6744;53.190;6.576;2022-09-12T15:27:30;7.90;;;7.10;;
13349;SDS011;6744;53.190;6.576;2022-09-12T15:29:56;8.37;;;7.50;;
13349;SDS011;6744;53.190;6.576;2022-09-12T15:32:25;9.53;;;8.63;;
13349;SDS011;6744;53.190;6.576;2022-09-12T15:34:52;8.70;;;7.90;;
13349;SDS011;6744;53.190;6.576;2022-09-12T15:37:21;7.50;;;6.80;;
13349;SDS011;6744;53.190;6.576;2022-09-12T15:39:48;7.20;;;6.50;;
13349;SDS011;6744;53.190;6.576;2022-09-12T15:42:13;6.87;;;6.27;;
13349;SDS011;6744;53.190;6.576;2022-09-12T15:44:39;6.93;;;6.20;;
13349;SDS011;6744;53.190;6.576;2022-09-12T15:47:05;8.97;;;8.10;;
13349;SDS011;6744;53.190;6.576;2022-09-12T15:49:30;8.60;;;7.80;;
13349;SDS011;6744;53.190;6.576;2022-09-12T15:51:56;8.00;;;7.27;;
13349;SDS011;6744;53.190;6.576;2022-09-12T15:54:22;7.33;;;6.67;;
13349;SDS011;6744;53.190;6.576;2022-09-12T15:56:47;8.27;;;7.40;;
13349;SDS011;6744;53.190;6.576;2022-09-12T15:59:13;6.73;;;6.13;;
13349;SDS011;6744;53.190;6.576;2022-09-12T16:01:38;7.40;;;6.70;;
13349;SDS011;6744;53.190;6.576;2022-09-12T16:04:08;6.70;;;6.10;;
13349;SDS011;6744;53.190;6.576;2022-09-12T16:06:45;6.47;;;5.63;;
13349;SDS011;6744;53.190;6.576;2022-09-12T16:09:10;6.53;;;5.83;;
13349;SDS011;6744;53.190;6.576;2022-09-12T16:11:35;6.43;;;5.80;;
13349;SDS011;6744;53.190;6.576;2022-09-12T16:14:02;6.37;;;5.77;;
13349;SDS011;6744;53.190;6.576;2022-09-12T16:16:28;5.57;;;5.00;;
13349;SDS011;6744;53.190;6.576;2022-09-12T16:18:54;5.50;;;5.00;;
13349;SDS011;6744;53.190;6.576;2022-09-12T16:21:19;4.70;;;4.23;;
13349;SDS011;6744;53.190;6.576;2022-09-12T16:23:46;5.20;;;4.80;;
13349;SDS011;6744;53.190;6.576;2022-09-12T16:26:11;5.10;;;4.70;;
13349;SDS011;6744;53.190;6.576;2022-09-12T16:28:37;4.97;;;4.47;;
13349;SDS011;6744;53.190;6.576;2022-09-12T16:31:04;4.77;;;4.37;;
13349;SDS011;6744;53.190;6.576;2022-09-12T16:33:30;5.17;;;4.13;;
13349;SDS011;6744;53.190;6.576;2022-09-12T16:36:00;4.50;;;4.20;;
13349;SDS011;6744;53.190;6.576;2022-09-12T16:38:29;4.77;;;4.37;;
13349;SDS011;6744;53.190;6.576;2022-09-12T16:41:02;5.03;;;4.53;;
13349;SDS011;6744;53.190;6.576;2022-09-12T16:43:29;3.67;;;3.43;;
13349;SDS011;6744;53.190;6.576;2022-09-12T16:48:27;4.00;;;3.70;;
13349;SDS011;6744;53.190;6.576;2022-09-12T16:50:56;3.80;;;3.50;;
13349;SDS011;6744;53.190;6.576;2022-09-12T16:53:23;5.00;;;3.77;;
13349;SDS011;6744;53.190;6.576;2022-09-12T16:55:48;3.73;;;3.43;;
13349;SDS011;6744;53.190;6.576;2022-09-12T16:58:14;3.27;;;3.07;;
13349;SDS011;6744;53.190;6.576;2022-09-12T17:00:39;3.60;;;3.30;;
13349;SDS011;6744;53.190;6.576;2022-09-12T17:03:05;4.10;;;3.67;;
13349;SDS011;6744;53.190;6.576;2022-09-12T17:05:30;3.50;;;3.23;;
13349;SDS011;6744;53.190;6.576;2022-09-12T17:07:55;4.00;;;3.70;;
13349;SDS011;6744;53.190;6.576;2022-09-12T17:10:21;4.20;;;3.80;;
13349;SDS011;6744;53.190;6.576;2022-09-12T17:12:46;3.73;;;3.43;;
13349;SDS011;6744;53.190;6.576;2022-09-12T17:15:11;4.20;;;3.37;;
13349;SDS011;6744;53.190;6.576;2022-09-12T17:17:37;3.23;;;3.03;;
13349;SDS011;6744;53.190;6.576;2022-09-12T17:20:02;3.77;;;3.47;;
13349;SDS011;6744;53.190;6.576;2022-09-12T17:22:28;3.77;;;3.47;;
13349;SDS011;6744;53.190;6.576;2022-09-12T17:24:53;4.20;;;3.80;;
13349;SDS011;6744;53.190;6.576;2022-09-12T17:27:19;4.10;;;3.80;;
13349;SDS011;6744;53.190;6.576;2022-09-12T17:29:44;3.70;;;3.43;;
13349;SDS011;6744;53.190;6.576;2022-09-12T17:32:10;3.83;;;3.03;;
13349;SDS011;6744;53.190;6.576;2022-09-12T17:34:35;3.37;;;3.07;;
13349;SDS011;6744;53.190;6.576;2022-09-12T17:37:00;3.07;;;2.87;;
13349;SDS011;6744;53.190;6.576;2022-09-12T17:39:26;3.13;;;2.90;;
13349;SDS011;6744;53.190;6.576;2022-09-12T17:41:51;3.30;;;3.00;;
13349;SDS011;6744;53.190;6.576;2022-09-12T17:44:18;3.77;;;3.20;;
13349;SDS011;6744;53.190;6.576;2022-09-12T17:46:44;3.53;;;3.23;;
13349;SDS011;6744;53.190;6.576;2022-09-12T17:49:10;3.53;;;3.23;;
13349;SDS011;6744;53.190;6.576;2022-09-12T17:51:37;3.00;;;2.80;;